sensor_id;sensor_type;location;lat;lon;timestamp;pressure;altitude;pressure_sealevel;temperature;humidity
9281;BME280;4679;47.966;7.958;2023-04-05T05:38:12;97462.03;;;-0.36;62.58
9281;BME280;4679;47.966;7.958;2023-04-05T05:40:14;97458.59;;;-0.37;62.71
9281;BME280;4679;47.966;7.958;2023-04-05T05:42:16;97466.41;;;-0.37;62.80
9281;BME280;4679;47.966;7.958;2023-04-05T05:44:18;97465.56;;;-0.29;62.60
9281;BME280;4679;47.966;7.958;2023-04-05T05:46:20;97465.91;;;-0.24;62.64
9281;BME280;4679;47.966;7.958;2023-04-05T05:48:21;97469.47;;;-0.25;62.61
9281;BME280;4679;47.966;7.958;2023-04-05T05:50:23;97471.94;;;-0.23;62.63
9281;BME280;4679;47.966;7.958;2023-04-05T05:52:25;97465.41;;;-0.19;62.58
9281;BME280;4679;47.966;7.958;2023-04-05T05:54:28;97471.72;;;-0.14;62.52
9281;BME280;4679;47.966;7.958;2023-04-05T05:56:29;97469.28;;;-0.07;62.42
9281;BME280;4679;47.966;7.958;2023-04-05T05:58:31;97471.72;;;-0.06;62.36
9281;BME280;4679;47.966;7.958;2023-04-05T06:00:33;97466.81;;;-0.01;62.39
9281;BME280;4679;47.966;7.958;2023-04-05T06:02:35;97465.16;;;0.07;62.21
9281;BME280;4679;47.966;7.958;2023-04-05T06:04:37;97463.34;;;0.07;62.34
9281;BME280;4679;47.966;7.958;2023-04-05T06:06:39;97467.44;;;0.02;62.27
9281;BME280;4679;47.966;7.958;2023-04-05T06:08:42;97464.22;;;-0.01;62.28
9281;BME280;4679;47.966;7.958;2023-04-05T06:10:45;97472.66;;;0.02;62.56
9281;BME280;4679;47.966;7.958;2023-04-05T06:12:46;97469.06;;;0.03;62.27
9281;BME280;4679;47.966;7.958;2023-04-05T06:14:48;97472.00;;;0.08;62.46
9281;BME280;4679;47.966;7.958;2023-04-05T06:16:50;97470.69;;;0.12;62.29
9281;BME280;4679;47.966;7.958;2023-04-05T06:18:51;97474.22;;;0.19;62.31
9281;BME280;4679;47.966;7.958;2023-04-05T06:20:54;97469.50;;;0.22;62.21
9281;BME280;4679;47.966;7.958;2023-04-05T06:22:56;97470.78;;;0.26;62.20
9281;BME280;4679;47.966;7.958;2023-04-05T06:24:58;97468.47;;;0.31;62.59
9281;BME280;4679;47.966;7.958;2023-04-05T06:27:01;97467.78;;;0.38;61.97
9281;BME280;4679;47.966;7.958;2023-04-05T06:29:02;97459.78;;;0.39;61.93
9281;BME280;4679;47.966;7.958;2023-04-05T06:31:04;97469.91;;;0.42;62.22
9281;BME280;4679;47.966;7.958;2023-04-05T06:33:05;97469.56;;;0.45;62.17
9281;BME280;4679;47.966;7.958;2023-04-05T06:35:07;97470.47;;;0.52;61.79
9281;BME280;4679;47.966;7.958;2023-04-05T06:37:09;97462.16;;;0.57;61.87
9281;BME280;4679;47.966;7.958;2023-04-05T06:39:11;97465.22;;;0.60;61.67
9281;BME280;4679;47.966;7.958;2023-04-05T06:41:12;97460.63;;;0.62;62.06
9281;BME280;4679;47.966;7.958;2023-04-05T06:43:16;97465.81;;;0.70;61.70
9281;BME280;4679;47.966;7.958;2023-04-05T06:45:17;97461.16;;;0.81;61.57
9281;BME280;4679;47.966;7.958;2023-04-05T06:47:19;97469.25;;;0.94;61.50
9281;BME280;4679;47.966;7.958;2023-04-05T06:49:21;97468.56;;;1.00;61.49
9281;BME280;4679;47.966;7.958;2023-04-05T06:51:22;97466.06;;;1.07;61.24
9281;BME280;4679;47.966;7.958;2023-04-05T06:53:25;97463.38;;;1.15;61.39
9281;BME280;4679;47.966;7.958;2023-04-05T06:55:27;97450.53;;;1.28;61.09
9281;BME280;4679;47.966;7.958;2023-04-05T06:57:29;97446.88;;;1.37;61.35
9281;BME280;4679;47.966;7.958;2023-04-05T06:59:32;97448.22;;;1.48;60.83
9281;BME280;4679;47.966;7.958;2023-04-05T07:01:34;97451.38;;;1.58;60.39
9281;BME280;4679;47.966;7.958;2023-04-05T07:03:36;97451.31;;;1.66;60.84
9281;BME280;4679;47.966;7.958;2023-04-05T07:05:37;97450.13;;;1.68;60.16
9281;BME280;4679;47.966;7.958;2023-04-05T07:07:40;97453.50;;;1.77;60.23
9281;BME280;4679;47.966;7.958;2023-04-05T07:09:43;97453.94;;;1.95;60.24
9281;BME280;4679;47.966;7.958;2023-04-05T07:11:45;97445.63;;;2.06;59.52
9281;BME280;4679;47.966;7.958;2023-04-05T07:13:46;97450.75;;;2.29;59.37
9281;BME280;4679;47.966;7.958;2023-04-05T07:15:49;97443.94;;;2.50;58.98
9281;BME280;4679;47.966;7.958;2023-04-05T07:17:51;97446.41;;;2.72;59.03
9281;BME280;4679;47.966;7.958;2023-04-05T07:19:53;97443.56;;;2.89;58.47
9281;BME280;4679;47.966;7.958;2023-04-05T07:21:55;97441.69;;;3.04;57.92
9281;BME280;4679;47.966;7.958;2023-04-05T07:23:57;97446.69;;;3.20;57.92
9281;BME280;4679;47.966;7.958;2023-04-05T07:26:01;97449.81;;;3.37;57.70
9281;BME280;4679;47.966;7.958;2023-04-05T07:28:04;97456.00;;;3.50;57.58
9281;BME280;4679;47.966;7.958;2023-04-05T07:30:07;97451.47;;;3.66;56.92
9281;BME280;4679;47.966;7.958;2023-04-05T07:32:10;97456.81;;;3.85;56.78
9281;BME280;4679;47.966;7.958;2023-04-05T07:34:12;97441.16;;;3.99;56.50
9281;BME280;4679;47.966;7.958;2023-04-05T07:36:13;97449.06;;;4.05;56.18
9281;BME280;4679;47.966;7.958;2023-04-05T07:38:15;97445.69;;;4.11;55.92
9281;BME280;4679;47.966;7.958;2023-04-05T07:40:17;97443.94;;;4.25;55.85
9281;BME280;4679;47.966;7.958;2023-04-05T07:42:19;97444.16;;;4.37;55.41
9281;BME280;4679;47.966;7.958;2023-04-05T07:44:20;97440.81;;;4.56;55.23
9281;BME280;4679;47.966;7.958;2023-04-05T07:46:22;97444.88;;;4.65;54.77
9281;BME280;4679;47.966;7.958;2023-04-05T07:48:25;97446.25;;;4.61;54.47
9281;BME280;4679;47.966;7.958;2023-04-05T07:50:27;97450.31;;;4.64;54.26
9281;BME280;4679;47.966;7.958;2023-04-05T07:52:28;97447.72;;;4.70;53.76
9281;BME280;4679;47.966;7.958;2023-04-05T07:54:30;97448.97;;;4.94;53.99
9281;BME280;4679;47.966;7.958;2023-04-05T07:56:32;97445.97;;;5.23;53.78
9281;BME280;4679;47.966;7.958;2023-04-05T07:58:34;97452.47;;;5.41;53.29
9281;BME280;4679;47.966;7.958;2023-04-05T08:00:39;97450.66;;;5.54;53.24
9281;BME280;4679;47.966;7.958;2023-04-05T08:02:41;97443.16;;;5.58;52.14
9281;BME280;4679;47.966;7.958;2023-04-05T08:04:44;97447.81;;;5.43;52.53
9281;BME280;4679;47.966;7.958;2023-04-05T08:06:46;97450.25;;;5.64;51.92
9281;BME280;4679;47.966;7.958;2023-04-05T08:08:48;97440.50;;;5.84;51.87
9281;BME280;4679;47.966;7.958;2023-04-05T08:10:49;97443.31;;;6.03;51.20
9281;BME280;4679;47.966;7.958;2023-04-05T08:12:51;97445.19;;;5.76;52.18
9281;BME280;4679;47.966;7.958;2023-04-05T08:14:53;97444.59;;;5.60;51.65
9281;BME280;4679;47.966;7.958;2023-04-05T08:16:55;97436.50;;;5.49;52.11
9281;BME280;4679;47.966;7.958;2023-04-05T08:18:56;97451.47;;;5.61;51.02
9281;BME280;4679;47.966;7.958;2023-04-05T08:21:00;97444.59;;;5.60;51.62
9281;BME280;4679;47.966;7.958;2023-04-05T08:23:01;97434.84;;;5.54;51.13
9281;BME280;4679;47.966;7.958;2023-04-05T08:25:03;97435.50;;;5.50;50.91
9281;BME280;4679;47.966;7.958;2023-04-05T08:27:05;97430.81;;;5.58;50.58
9281;BME280;4679;47.966;7.958;2023-04-05T08:29:07;97436.25;;;5.77;50.19
9281;BME280;4679;47.966;7.958;2023-04-05T08:31:08;97429.31;;;6.15;50.73
9281;BME280;4679;47.966;7.958;2023-04-05T08:33:10;97429.78;;;6.44;50.28
9281;BME280;4679;47.966;7.958;2023-04-05T08:35:12;97431.34;;;6.64;50.19
9281;BME280;4679;47.966;7.958;2023-04-05T08:37:14;97427.59;;;6.85;48.99
9281;BME280;4679;47.966;7.958;2023-04-05T08:39:16;97436.38;;;7.04;49.42
9281;BME280;4679;47.966;7.958;2023-04-05T08:41:19;97431.44;;;7.14;49.31
9281;BME280;4679;47.966;7.958;2023-04-05T08:43:24;97431.78;;;7.24;48.97
9281;BME280;4679;47.966;7.958;2023-04-05T08:45:30;97429.53;;;7.28;49.07
9281;BME280;4679;47.966;7.958;2023-04-05T08:47:35;97428.00;;;7.38;48.09
9281;BME280;4679;47.966;7.958;2023-04-05T08:49:41;97419.84;;;7.47;48.01
9281;BME280;4679;47.966;7.958;2023-04-05T08:51:43;97424.19;;;7.59;47.44
9281;BME280;4679;47.966;7.958;2023-04-05T08:53:46;97435.28;;;7.68;47.40
9281;BME280;4679;47.966;7.958;2023-04-05T08:55:48;97433.06;;;7.65;47.59
9281;BME280;4679;47.966;7.958;2023-04-05T08:57:53;97432.91;;;7.35;48.22
9281;BME280;4679;47.966;7.958;2023-04-05T08:59:59;97432.38;;;7.51;47.84
9281;BME280;4679;47.966;7.958;2023-04-05T09:02:06;97433.31;;;7.63;47.92
9281;BME280;4679;47.966;7.958;2023-04-05T09:04:11;97426.28;;;7.51;47.49
9281;BME280;4679;47.966;7.958;2023-04-05T09:06:14;97440.25;;;7.33;46.97
9281;BME280;4679;47.966;7.958;2023-04-05T09:08:17;97431.97;;;7.23;47.13
9281;BME280;4679;47.966;7.958;2023-04-05T09:10:22;97426.72;;;7.23;47.68
9281;BME280;4679;47.966;7.958;2023-04-05T09:12:24;97438.78;;;7.37;47.12
9281;BME280;4679;47.966;7.958;2023-04-05T09:14:28;97435.06;;;7.69;46.65
9281;BME280;4679;47.966;7.958;2023-04-05T09:16:31;97431.34;;;7.95;45.99
9281;BME280;4679;47.966;7.958;2023-04-05T09:18:33;97423.50;;;8.25;45.77
9281;BME280;4679;47.966;7.958;2023-04-05T09:20:35;97418.19;;;8.32;45.89
9281;BME280;4679;47.966;7.958;2023-04-05T09:22:43;97418.53;;;8.54;45.39
9281;BME280;4679;47.966;7.958;2023-04-05T09:24:45;97418.47;;;8.72;45.23
9281;BME280;4679;47.966;7.958;2023-04-05T09:27:05;97416.94;;;8.82;44.79
9281;BME280;4679;47.966;7.958;2023-04-05T09:29:07;97413.94;;;8.91;45.09
9281;BME280;4679;47.966;7.958;2023-04-05T09:31:09;97414.53;;;8.93;44.87
9281;BME280;4679;47.966;7.958;2023-04-05T09:33:14;97414.28;;;8.34;44.65
9281;BME280;4679;47.966;7.958;2023-04-05T09:35:18;97424.81;;;7.98;44.70
9281;BME280;4679;47.966;7.958;2023-04-05T09:37:20;97418.06;;;8.02;45.29
9281;BME280;4679;47.966;7.958;2023-04-05T09:39:27;97409.78;;;8.17;44.71
9281;BME280;4679;47.966;7.958;2023-04-05T09:41:29;97405.91;;;8.19;44.46
9281;BME280;4679;47.966;7.958;2023-04-05T09:43:36;97410.88;;;8.64;43.98
9281;BME280;4679;47.966;7.958;2023-04-05T09:45:39;97413.94;;;8.91;43.78
9281;BME280;4679;47.966;7.958;2023-04-05T09:47:41;97412.34;;;8.90;43.87
9281;BME280;4679;47.966;7.958;2023-04-05T09:49:45;97413.53;;;9.05;44.02
9281;BME280;4679;47.966;7.958;2023-04-05T09:51:46;97414.22;;;9.01;43.58
9281;BME280;4679;47.966;7.958;2023-04-05T09:53:58;97410.44;;;9.20;43.72
9281;BME280;4679;47.966;7.958;2023-04-05T09:56:08;97404.13;;;9.33;43.02
9281;BME280;4679;47.966;7.958;2023-04-05T09:58:11;97406.72;;;8.98;43.62
9281;BME280;4679;47.966;7.958;2023-04-05T10:00:19;97400.81;;;8.84;43.85
9281;BME280;4679;47.966;7.958;2023-04-05T10:02:21;97405.81;;;9.04;43.16
9281;BME280;4679;47.966;7.958;2023-04-05T10:04:23;97405.66;;;8.87;43.38
9281;BME280;4679;47.966;7.958;2023-04-05T10:06:36;97402.66;;;8.84;43.42
9281;BME280;4679;47.966;7.958;2023-04-05T10:08:38;97403.38;;;8.91;43.36
9281;BME280;4679;47.966;7.958;2023-04-05T10:10:45;97400.44;;;9.22;43.25
9281;BME280;4679;47.966;7.958;2023-04-05T10:12:48;97402.28;;;9.33;42.68
9281;BME280;4679;47.966;7.958;2023-04-05T10:14:50;97398.88;;;8.91;42.63
9281;BME280;4679;47.966;7.958;2023-04-05T10:16:59;97401.50;;;8.79;43.02
9281;BME280;4679;47.966;7.958;2023-04-05T10:19:07;97410.53;;;9.02;42.75
9281;BME280;4679;47.966;7.958;2023-04-05T10:21:18;97400.94;;;9.42;42.68
9281;BME280;4679;47.966;7.958;2023-04-05T10:23:23;97405.44;;;9.65;42.48
9281;BME280;4679;47.966;7.958;2023-04-05T10:25:32;97398.38;;;9.94;42.13
9281;BME280;4679;47.966;7.958;2023-04-05T10:27:46;97393.91;;;9.83;41.52
9281;BME280;4679;47.966;7.958;2023-04-05T10:29:52;97393.69;;;9.49;42.52
9281;BME280;4679;47.966;7.958;2023-04-05T10:32:04;97402.88;;;9.35;42.50
9281;BME280;4679;47.966;7.958;2023-04-05T10:34:18;97396.44;;;9.66;42.38
9281;BME280;4679;47.966;7.958;2023-04-05T10:36:24;97402.09;;;9.70;41.95
9281;BME280;4679;47.966;7.958;2023-04-05T10:38:47;97403.00;;;9.29;41.89
9281;BME280;4679;47.966;7.958;2023-04-05T10:40:56;97406.47;;;9.29;41.64
9281;BME280;4679;47.966;7.958;2023-04-05T10:42:58;97404.03;;;9.16;42.13
9281;BME280;4679;47.966;7.958;2023-04-05T10:45:01;97401.47;;;9.21;42.29
9281;BME280;4679;47.966;7.958;2023-04-05T10:47:05;97400.63;;;9.62;41.54
9281;BME280;4679;47.966;7.958;2023-04-05T10:49:15;97403.25;;;9.85;41.51
9281;BME280;4679;47.966;7.958;2023-04-05T10:51:22;97398.28;;;9.66;41.39
9281;BME280;4679;47.966;7.958;2023-04-05T10:53:24;97402.09;;;9.81;41.69
9281;BME280;4679;47.966;7.958;2023-04-05T10:55:26;97395.88;;;10.23;41.61
9281;BME280;4679;47.966;7.958;2023-04-05T10:57:28;97404.56;;;10.46;40.80
9281;BME280;4679;47.966;7.958;2023-04-05T10:59:30;97403.31;;;10.37;41.19
9281;BME280;4679;47.966;7.958;2023-04-05T11:01:33;97390.59;;;10.51;40.82
9281;BME280;4679;47.966;7.958;2023-04-05T11:03:46;97387.31;;;10.61;40.28
9281;BME280;4679;47.966;7.958;2023-04-05T11:05:49;97378.38;;;10.78;41.15
9281;BME280;4679;47.966;7.958;2023-04-05T11:07:51;97382.69;;;10.68;41.69
9281;BME280;4679;47.966;7.958;2023-04-05T11:09:59;97380.75;;;10.23;40.60
9281;BME280;4679;47.966;7.958;2023-04-05T11:12:02;97383.53;;;9.93;41.10
9281;BME280;4679;47.966;7.958;2023-04-05T11:14:16;97384.56;;;10.04;41.03
9281;BME280;4679;47.966;7.958;2023-04-05T11:16:18;97378.38;;;10.50;40.65
9281;BME280;4679;47.966;7.958;2023-04-05T11:18:21;97381.88;;;10.67;40.91
9281;BME280;4679;47.966;7.958;2023-04-05T11:20:24;97381.19;;;10.32;41.55
9281;BME280;4679;47.966;7.958;2023-04-05T11:22:27;97379.16;;;10.22;41.43
9281;BME280;4679;47.966;7.958;2023-04-05T11:24:48;97380.63;;;10.58;40.22
9281;BME280;4679;47.966;7.958;2023-04-05T11:26:54;97380.09;;;10.73;40.10
9281;BME280;4679;47.966;7.958;2023-04-05T11:28:57;97374.16;;;10.66;40.58
9281;BME280;4679;47.966;7.958;2023-04-05T11:31:11;97371.94;;;10.91;40.12
9281;BME280;4679;47.966;7.958;2023-04-05T11:33:34;97369.28;;;10.91;40.53
9281;BME280;4679;47.966;7.958;2023-04-05T11:35:39;97371.56;;;10.99;40.49
9281;BME280;4679;47.966;7.958;2023-04-05T11:37:54;97369.19;;;10.86;40.39
9281;BME280;4679;47.966;7.958;2023-04-05T11:42:27;97360.78;;;11.06;40.05
9281;BME280;4679;47.966;7.958;2023-04-05T11:44:39;97363.28;;;11.12;39.90
9281;BME280;4679;47.966;7.958;2023-04-05T11:46:41;97358.22;;;11.44;40.25
9281;BME280;4679;47.966;7.958;2023-04-05T11:48:47;97352.16;;;11.32;39.85
9281;BME280;4679;47.966;7.958;2023-04-05T11:50:52;97356.28;;;11.40;39.10
9281;BME280;4679;47.966;7.958;2023-04-05T11:53:11;97355.63;;;11.33;39.42
9281;BME280;4679;47.966;7.958;2023-04-05T11:55:13;97364.28;;;11.61;39.87
9281;BME280;4679;47.966;7.958;2023-04-05T11:57:18;97350.63;;;11.36;39.68
9281;BME280;4679;47.966;7.958;2023-04-05T11:59:27;97355.78;;;11.59;39.87
9281;BME280;4679;47.966;7.958;2023-04-05T12:01:28;97349.91;;;11.96;39.86
9281;BME280;4679;47.966;7.958;2023-04-05T12:03:30;97349.13;;;11.95;39.15
9281;BME280;4679;47.966;7.958;2023-04-05T12:05:44;97349.75;;;12.03;39.80
9281;BME280;4679;47.966;7.958;2023-04-05T12:07:51;97349.69;;;11.97;40.02
9281;BME280;4679;47.966;7.958;2023-04-05T12:10:02;97342.81;;;12.23;39.49
9281;BME280;4679;47.966;7.958;2023-04-05T12:12:15;97342.50;;;12.42;39.01
9281;BME280;4679;47.966;7.958;2023-04-05T12:14:17;97343.13;;;12.05;38.97
9281;BME280;4679;47.966;7.958;2023-04-05T12:16:24;97346.34;;;11.85;39.08
9281;BME280;4679;47.966;7.958;2023-04-05T12:18:26;97336.13;;;11.99;40.04
9281;BME280;4679;47.966;7.958;2023-04-05T12:20:28;97336.25;;;12.09;39.00
9281;BME280;4679;47.966;7.958;2023-04-05T12:22:30;97338.81;;;12.21;39.76
9281;BME280;4679;47.966;7.958;2023-04-05T12:24:34;97337.47;;;12.23;39.33
9281;BME280;4679;47.966;7.958;2023-04-05T12:26:35;97332.44;;;12.22;38.73
9281;BME280;4679;47.966;7.958;2023-04-05T12:28:49;97334.56;;;11.64;39.11
9281;BME280;4679;47.966;7.958;2023-04-05T12:30:53;97326.22;;;11.94;38.85
9281;BME280;4679;47.966;7.958;2023-04-05T12:32:56;97325.56;;;12.04;39.45
9281;BME280;4679;47.966;7.958;2023-04-05T12:34:58;97330.50;;;12.17;38.90
9281;BME280;4679;47.966;7.958;2023-04-05T12:37:00;97329.06;;;12.10;39.44
9281;BME280;4679;47.966;7.958;2023-04-05T12:39:05;97332.53;;;12.32;38.79
9281;BME280;4679;47.966;7.958;2023-04-05T12:41:09;97326.03;;;12.45;38.53
9281;BME280;4679;47.966;7.958;2023-04-05T12:43:10;97323.63;;;12.70;38.63
9281;BME280;4679;47.966;7.958;2023-04-05T12:45:22;97323.47;;;12.55;39.31
9281;BME280;4679;47.966;7.958;2023-04-05T12:47:27;97331.66;;;12.75;38.83
9281;BME280;4679;47.966;7.958;2023-04-05T12:49:35;97322.56;;;12.71;38.85
9281;BME280;4679;47.966;7.958;2023-04-05T12:51:40;97322.78;;;12.64;38.94
9281;BME280;4679;47.966;7.958;2023-04-05T12:53:44;97320.13;;;12.64;39.03
9281;BME280;4679;47.966;7.958;2023-04-05T12:55:48;97315.69;;;12.75;38.34
9281;BME280;4679;47.966;7.958;2023-04-05T12:57:56;97312.53;;;13.10;38.24
9281;BME280;4679;47.966;7.958;2023-04-05T12:59:59;97311.63;;;13.31;37.90
9281;BME280;4679;47.966;7.958;2023-04-05T13:02:01;97309.63;;;13.49;37.71
9281;BME280;4679;47.966;7.958;2023-04-05T13:04:03;97308.28;;;13.46;37.82
9281;BME280;4679;47.966;7.958;2023-04-05T13:06:05;97310.34;;;13.34;38.48
9281;BME280;4679;47.966;7.958;2023-04-05T13:08:07;97315.41;;;13.35;38.07
9281;BME280;4679;47.966;7.958;2023-04-05T13:10:09;97301.06;;;13.42;37.99
9281;BME280;4679;47.966;7.958;2023-04-05T13:12:11;97309.38;;;13.13;37.87
9281;BME280;4679;47.966;7.958;2023-04-05T13:14:14;97313.34;;;12.79;38.50
9281;BME280;4679;47.966;7.958;2023-04-05T13:16:17;97305.41;;;12.89;38.19
9281;BME280;4679;47.966;7.958;2023-04-05T13:18:19;97304.53;;;13.10;37.92
9281;BME280;4679;47.966;7.958;2023-04-05T13:20:21;97304.81;;;13.46;38.00
9281;BME280;4679;47.966;7.958;2023-04-05T13:22:22;97295.59;;;13.63;37.34
9281;BME280;4679;47.966;7.958;2023-04-05T13:24:24;97298.03;;;13.28;37.64
9281;BME280;4679;47.966;7.958;2023-04-05T13:26:26;97302.72;;;13.53;37.58
9281;BME280;4679;47.966;7.958;2023-04-05T13:28:27;97295.13;;;13.77;37.19
9281;BME280;4679;47.966;7.958;2023-04-05T13:30:31;97286.81;;;13.68;37.48
9281;BME280;4679;47.966;7.958;2023-04-05T13:32:32;97289.81;;;13.82;37.79
9281;BME280;4679;47.966;7.958;2023-04-05T13:34:34;97290.66;;;13.92;37.41
9281;BME280;4679;47.966;7.958;2023-04-05T13:36:36;97300.03;;;14.00;36.95
9281;BME280;4679;47.966;7.958;2023-04-05T13:38:38;97292.44;;;13.71;36.81
9281;BME280;4679;47.966;7.958;2023-04-05T13:40:40;97287.78;;;13.52;37.72
9281;BME280;4679;47.966;7.958;2023-04-05T13:42:42;97293.50;;;13.76;37.26
9281;BME280;4679;47.966;7.958;2023-04-05T13:44:44;97289.72;;;13.19;37.38
9281;BME280;4679;47.966;7.958;2023-04-05T13:46:47;97288.69;;;13.25;37.51
9281;BME280;4679;47.966;7.958;2023-04-05T13:48:49;97285.47;;;13.65;37.14
9281;BME280;4679;47.966;7.958;2023-04-05T13:50:51;97286.22;;;13.61;37.12
9281;BME280;4679;47.966;7.958;2023-04-05T13:52:52;97289.16;;;13.54;37.16
9281;BME280;4679;47.966;7.958;2023-04-05T13:54:54;97277.56;;;13.86;37.32
9281;BME280;4679;47.966;7.958;2023-04-05T13:56:56;97281.56;;;13.83;36.75
9281;BME280;4679;47.966;7.958;2023-04-05T13:58:58;97280.47;;;13.74;37.06
9281;BME280;4679;47.966;7.958;2023-04-05T14:01:00;97277.19;;;13.62;36.99
9281;BME280;4679;47.966;7.958;2023-04-05T14:03:04;97284.53;;;13.45;37.23
9281;BME280;4679;47.966;7.958;2023-04-05T14:05:07;97279.97;;;13.87;36.64
9281;BME280;4679;47.966;7.958;2023-04-05T14:07:09;97281.59;;;13.88;36.56
9281;BME280;4679;47.966;7.958;2023-04-05T14:09:10;97277.31;;;13.87;36.70
9281;BME280;4679;47.966;7.958;2023-04-05T14:11:12;97279.47;;;13.95;36.41
9281;BME280;4679;47.966;7.958;2023-04-05T14:13:14;97276.81;;;13.95;36.69
9281;BME280;4679;47.966;7.958;2023-04-05T14:15:17;97275.72;;;13.86;36.69
9281;BME280;4679;47.966;7.958;2023-04-05T14:17:19;97279.28;;;14.17;36.41
9281;BME280;4679;47.966;7.958;2023-04-05T14:19:22;97274.25;;;14.26;36.71
9281;BME280;4679;47.966;7.958;2023-04-05T14:21:24;97276.56;;;14.02;36.63
9281;BME280;4679;47.966;7.958;2023-04-05T14:23:25;97274.47;;;14.14;36.34
9281;BME280;4679;47.966;7.958;2023-04-05T14:25:27;97278.50;;;14.27;36.11
9281;BME280;4679;47.966;7.958;2023-04-05T14:27:29;97273.25;;;13.80;36.46
9281;BME280;4679;47.966;7.958;2023-04-05T14:29:31;97273.19;;;13.59;36.76
9281;BME280;4679;47.966;7.958;2023-04-05T14:31:33;97270.06;;;13.30;36.57
9281;BME280;4679;47.966;7.958;2023-04-05T14:33:34;97272.31;;;13.12;36.77
9281;BME280;4679;47.966;7.958;2023-04-05T14:35:37;97266.56;;;12.93;36.85
9281;BME280;4679;47.966;7.958;2023-04-05T14:37:39;97266.41;;;13.04;36.92
9281;BME280;4679;47.966;7.958;2023-04-05T14:39:41;97264.91;;;13.61;36.44
9281;BME280;4679;47.966;7.958;2023-04-05T14:41:44;97268.78;;;13.90;35.89
9281;BME280;4679;47.966;7.958;2023-04-05T14:43:51;97268.34;;;14.24;35.85
9281;BME280;4679;47.966;7.958;2023-04-05T14:45:53;97268.56;;;14.02;36.16
9281;BME280;4679;47.966;7.958;2023-04-05T14:47:55;97262.44;;;13.49;36.23
9281;BME280;4679;47.966;7.958;2023-04-05T14:49:57;97254.38;;;13.91;36.22
9281;BME280;4679;47.966;7.958;2023-04-05T14:52:00;97262.38;;;13.91;36.11
9281;BME280;4679;47.966;7.958;2023-04-05T14:54:03;97258.09;;;13.90;35.92
9281;BME280;4679;47.966;7.958;2023-04-05T14:56:06;97254.97;;;14.03;35.86
9281;BME280;4679;47.966;7.958;2023-04-05T14:58:09;97246.88;;;13.83;36.29
9281;BME280;4679;47.966;7.958;2023-04-05T15:00:12;97240.53;;;13.99;35.82
9281;BME280;4679;47.966;7.958;2023-04-05T15:02:14;97244.63;;;14.27;35.63
9281;BME280;4679;47.966;7.958;2023-04-05T15:04:15;97250.72;;;14.23;35.86
9281;BME280;4679;47.966;7.958;2023-04-05T15:06:17;97244.25;;;13.93;36.06
9281;BME280;4679;47.966;7.958;2023-04-05T15:08:20;97240.22;;;13.86;36.13
9281;BME280;4679;47.966;7.958;2023-04-05T15:10:22;97245.00;;;13.73;36.16
9281;BME280;4679;47.966;7.958;2023-04-05T15:12:24;97242.56;;;13.72;36.42
9281;BME280;4679;47.966;7.958;2023-04-05T15:14:26;97238.94;;;13.98;35.98
9281;BME280;4679;47.966;7.958;2023-04-05T15:16:28;97234.59;;;13.82;35.94
9281;BME280;4679;47.966;7.958;2023-04-05T15:18:30;97241.06;;;13.96;35.81
9281;BME280;4679;47.966;7.958;2023-04-05T15:20:32;97240.28;;;14.06;35.77
9281;BME280;4679;47.966;7.958;2023-04-05T15:22:33;97247.53;;;14.16;35.70
9281;BME280;4679;47.966;7.958;2023-04-05T15:24:38;97236.81;;;14.00;35.66
9281;BME280;4679;47.966;7.958;2023-04-05T15:26:41;97241.88;;;14.07;35.91
9281;BME280;4679;47.966;7.958;2023-04-05T15:28:42;97232.63;;;14.35;35.62
9281;BME280;4679;47.966;7.958;2023-04-05T15:30:44;97233.22;;;14.62;35.22
9281;BME280;4679;47.966;7.958;2023-04-05T15:32:46;97247.66;;;14.66;35.37
9281;BME280;4679;47.966;7.958;2023-04-05T15:34:48;97239.13;;;13.82;35.61
9281;BME280;4679;47.966;7.958;2023-04-05T15:36:50;97235.94;;;13.27;35.91
9281;BME280;4679;47.966;7.958;2023-04-05T15:38:52;97236.03;;;13.06;36.69
9281;BME280;4679;47.966;7.958;2023-04-05T15:40:55;97241.13;;;12.75;36.53
9281;BME280;4679;47.966;7.958;2023-04-05T15:42:57;97237.69;;;13.12;36.51
9281;BME280;4679;47.966;7.958;2023-04-05T15:44:59;97240.28;;;13.38;36.00
9281;BME280;4679;47.966;7.958;2023-04-05T15:47:02;97241.31;;;13.90;35.40
9281;BME280;4679;47.966;7.958;2023-04-05T15:49:03;97240.56;;;14.04;35.12
9281;BME280;4679;47.966;7.958;2023-04-05T15:51:05;97244.13;;;14.35;35.37
9281;BME280;4679;47.966;7.958;2023-04-05T15:53:07;97246.03;;;14.91;34.76
9281;BME280;4679;47.966;7.958;2023-04-05T15:55:09;97244.97;;;14.76;35.02
9281;BME280;4679;47.966;7.958;2023-04-05T15:57:12;97249.78;;;14.59;35.02
9281;BME280;4679;47.966;7.958;2023-04-05T15:59:14;97248.22;;;13.91;35.51
9281;BME280;4679;47.966;7.958;2023-04-05T16:01:16;97244.63;;;13.55;35.65
9281;BME280;4679;47.966;7.958;2023-04-05T16:03:17;97244.66;;;13.18;36.09
9281;BME280;4679;47.966;7.958;2023-04-05T16:05:19;97238.38;;;13.34;35.97
9281;BME280;4679;47.966;7.958;2023-04-05T16:07:21;97226.63;;;13.92;35.34
9281;BME280;4679;47.966;7.958;2023-04-05T16:09:22;97227.19;;;13.99;35.42
9281;BME280;4679;47.966;7.958;2023-04-05T16:11:24;97237.22;;;13.67;35.43
9281;BME280;4679;47.966;7.958;2023-04-05T16:13:27;97238.44;;;13.07;35.97
9281;BME280;4679;47.966;7.958;2023-04-05T16:15:29;97239.78;;;12.73;36.19
9281;BME280;4679;47.966;7.958;2023-04-05T16:17:31;97239.00;;;12.45;36.79
9281;BME280;4679;47.966;7.958;2023-04-05T16:19:33;97230.69;;;12.68;36.44
9281;BME280;4679;47.966;7.958;2023-04-05T16:21:35;97233.66;;;13.09;35.93
9281;BME280;4679;47.966;7.958;2023-04-05T16:23:37;97236.97;;;13.21;35.69
9281;BME280;4679;47.966;7.958;2023-04-05T16:25:39;97240.00;;;13.03;36.23
9281;BME280;4679;47.966;7.958;2023-04-05T16:27:40;97229.28;;;13.25;36.25
9281;BME280;4679;47.966;7.958;2023-04-05T16:29:43;97232.47;;;12.90;35.97
9281;BME280;4679;47.966;7.958;2023-04-05T16:31:45;97231.47;;;13.01;36.42
9281;BME280;4679;47.966;7.958;2023-04-05T16:33:47;97235.56;;;13.14;36.17
9281;BME280;4679;47.966;7.958;2023-04-05T16:35:49;97236.78;;;13.01;36.25
9281;BME280;4679;47.966;7.958;2023-04-05T16:37:51;97238.53;;;12.85;36.78
9281;BME280;4679;47.966;7.958;2023-04-05T16:39:52;97234.19;;;12.74;36.76
9281;BME280;4679;47.966;7.958;2023-04-05T16:41:54;97233.28;;;12.31;37.33
9281;BME280;4679;47.966;7.958;2023-04-05T16:43:56;97234.09;;;12.05;36.59
9281;BME280;4679;47.966;7.958;2023-04-05T16:45:59;97232.53;;;12.09;36.70
9281;BME280;4679;47.966;7.958;2023-04-05T16:48:01;97236.69;;;11.78;36.69
9281;BME280;4679;47.966;7.958;2023-04-05T16:50:04;97236.53;;;11.46;37.99
9281;BME280;4679;47.966;7.958;2023-04-05T16:52:06;97229.81;;;11.60;36.87
9281;BME280;4679;47.966;7.958;2023-04-05T16:54:07;97239.69;;;11.65;37.25
9281;BME280;4679;47.966;7.958;2023-04-05T16:56:09;97231.78;;;11.48;37.00